Time,TemperatureF,DewpointF,PressureIn,WindDirection,WindDirectionDegrees,WindSpeedMPH,WindSpeedGustMPH,Humidity,HourlyPrecipIn,Conditions,Clouds,dailyrainin,SoftwareType,DateUTC
2013-08-20 00:11:00,56.0,54.0,29.92,West,264,1.0,4.0,92,0.00,,,0.00,,2013-08-20 07:11:00,
2013-08-20 00:21:00,56.0,54.0,29.92,SW,224,1.0,3.0,93,0.00,,,0.00,,2013-08-20 07:21:00,
2013-08-20 00:41:00,56.0,54.0,29.92,South,178,2.0,3.0,94,0.00,,,0.00,,2013-08-20 07:41:00,
2013-08-20 00:52:00,56.0,54.0,29.93,West,269,2.0,4.0,94,0.00,,,0.00,,2013-08-20 07:52:00,
2013-08-20 01:11:00,56.0,55.0,29.95,West,266,2.0,4.0,95,0.00,,,0.00,,2013-08-20 08:11:00,
2013-08-20 01:21:00,56.0,55.0,29.95,West,261,2.0,5.0,95,0.00,,,0.00,,2013-08-20 08:21:00,
2013-08-20 01:52:00,56.0,55.0,29.93,WSW,242,1.0,2.0,96,0.00,,,0.00,,2013-08-20 08:52:00,
2013-08-20 02:11:00,56.0,55.0,29.93,WSW,240,0.0,2.0,96,0.00,,,0.00,,2013-08-20 09:11:00,
2013-08-20 02:21:00,56.0,55.0,29.92,SW,231,1.0,2.0,96,0.00,,,0.00,,2013-08-20 09:21:00,
2013-08-20 02:42:00,56.0,55.0,29.93,WSW,244,1.0,3.0,96,0.00,,,0.00,,2013-08-20 09:42:00,
2013-08-20 02:53:00,56.0,55.0,29.92,West,281,1.0,2.0,96,0.00,,,0.00,,2013-08-20 09:53:00,
2013-08-20 03:12:00,56.0,55.0,29.91,West,266,1.0,2.0,96,0.00,,,0.00,,2013-08-20 10:12:00,
2013-08-20 03:22:00,56.0,55.0,29.91,West,276,1.0,2.0,96,0.00,,,0.00,,2013-08-20 10:22:00,
2013-08-20 03:42:00,56.0,55.0,29.91,WSW,243,1.0,2.0,96,0.00,,,0.00,,2013-08-20 10:42:00,
2013-08-20 03:52:00,56.0,55.0,29.91,West,274,1.0,2.0,97,0.00,,,0.00,,2013-08-20 10:52:00,
2013-08-20 04:11:00,56.0,55.0,29.90,West,280,1.0,3.0,97,0.00,,,0.00,,2013-08-20 11:11:00,
2013-08-20 04:21:00,55.0,54.0,29.90,WSW,242,1.0,2.0,97,0.00,,,0.00,,2013-08-20 11:21:00,
2013-08-20 04:42:00,56.0,55.0,29.90,WSW,256,1.0,3.0,97,0.00,,,0.00,,2013-08-20 11:42:00,
2013-08-20 04:51:00,56.0,55.0,29.89,West,262,0.0,2.0,97,0.00,,,0.00,,2013-08-20 11:51:00,
2013-08-20 05:12:00,55.0,54.0,29.89,West,259,0.0,1.0,97,0.00,,,0.00,,2013-08-20 12:12:00,
2013-08-20 05:21:00,55.0,54.0,29.89,West,275,1.0,2.0,98,0.00,,,0.00,,2013-08-20 12:21:00,
2013-08-20 05:41:00,55.0,54.0,29.89,West,275,0.0,2.0,98,0.00,,,0.00,,2013-08-20 12:41:00,
2013-08-20 05:51:00,55.0,54.0,29.89,WSW,247,1.0,3.0,98,0.00,,,0.00,,2013-08-20 12:51:00,
2013-08-20 06:11:00,55.0,54.0,29.89,WSW,255,1.0,3.0,98,0.00,,,0.00,,2013-08-20 13:11:00,
2013-08-20 06:21:00,55.0,54.0,29.89,West,263,1.0,2.0,98,0.00,,,0.00,,2013-08-20 13:21:00,
2013-08-20 06:41:00,56.0,55.0,29.90,SW,231,2.0,3.0,98,0.00,,,0.00,,2013-08-20 13:41:00,
2013-08-20 06:52:00,56.0,55.0,29.90,SW,231,0.0,1.0,98,0.00,,,0.00,,2013-08-20 13:52:00,
2013-08-20 07:11:00,55.0,54.0,29.91,SW,227,0.0,2.0,98,0.00,,,0.00,,2013-08-20 14:11:00,
2013-08-20 07:21:00,56.0,55.0,29.92,SW,227,0.0,1.0,98,0.00,,,0.00,,2013-08-20 14:21:00,
2013-08-20 07:41:00,56.0,55.0,29.92,SW,227,0.0,1.0,98,0.00,,,0.00,,2013-08-20 14:41:00,
2013-08-20 07:52:00,56.0,55.0,29.93,SW,227,1.0,2.0,98,0.00,,,0.00,,2013-08-20 14:52:00,
2013-08-20 08:11:00,56.0,55.0,29.93,SW,227,0.0,2.0,98,0.00,,,0.00,,2013-08-20 15:11:00,
2013-08-20 08:22:00,56.0,55.0,29.93,SW,227,0.0,1.0,98,0.00,,,0.00,,2013-08-20 15:22:00,
2013-08-20 08:43:00,57.0,56.0,29.93,SW,232,1.0,2.0,98,0.00,,,0.00,,2013-08-20 15:43:00,
2013-08-20 08:53:00,57.0,56.0,29.93,West,268,1.0,2.0,97,0.00,,,0.00,,2013-08-20 15:53:00,
2013-08-20 09:15:00,57.0,56.0,29.94,West,268,1.0,2.0,97,0.00,,,0.00,,2013-08-20 16:15:00,
2013-08-20 09:30:00,-999.0,-99.9,29.94,West,268,1.0,2.0,97,0.00,,,0.00,,2013-08-20 16:30:00,
2013-08-20 09:42:00,59.0,58.0,29.94,WSW,248,1.0,3.0,95,0.00,,,0.00,,2013-08-20 16:42:00,
2013-08-20 09:53:00,59.0,57.0,29.94,WNW,295,1.0,3.0,93,0.00,,,0.00,,2013-08-20 16:53:00,
2013-08-20 10:12:00,60.0,57.0,29.94,WSW,242,2.0,3.0,91,0.00,,,0.00,,2013-08-20 17:12:00,
2013-08-20 10:24:00,62.0,58.0,29.94,West,263,2.0,3.0,88,0.00,,,0.00,,2013-08-20 17:24:00,
2013-08-20 10:43:00,63.0,59.0,29.94,WNW,286,1.0,4.0,86,0.00,,,0.00,,2013-08-20 17:43:00,
2013-08-20 10:52:00,64.0,59.0,29.95,West,275,3.0,6.0,83,0.00,,,0.00,,2013-08-20 17:52:00,
2013-08-20 11:12:00,64.0,59.0,29.95,WSW,250,2.0,5.0,83,0.00,,,0.00,,2013-08-20 18:12:00,
2013-08-20 11:21:00,65.0,59.0,29.95,SW,227,2.0,3.0,81,0.00,,,0.00,,2013-08-20 18:21:00,
2013-08-20 11:43:00,65.0,59.0,29.95,West,261,2.0,3.0,80,0.00,,,0.00,,2013-08-20 18:43:00,
2013-08-20 11:52:00,66.0,59.0,29.95,WNW,290,2.0,4.0,79,0.00,,,0.00,,2013-08-20 18:52:00,
2013-08-20 12:11:00,68.0,60.0,29.95,South,184,1.0,4.0,75,0.00,,,0.00,,2013-08-20 19:11:00,
2013-08-20 12:21:00,70.0,60.0,29.95,WNW,296,2.0,4.0,71,0.00,,,0.00,,2013-08-20 19:21:00,
2013-08-20 12:41:00,71.0,60.0,29.95,SW,215,1.0,3.0,69,0.00,,,0.00,,2013-08-20 19:41:00,
2013-08-20 12:52:00,72.0,60.0,29.95,SSW,200,2.0,6.0,67,0.00,,,0.00,,2013-08-20 19:52:00,
2013-08-20 13:11:00,73.0,61.0,29.95,WSW,251,2.0,6.0,66,0.00,,,0.00,,2013-08-20 20:11:00,
2013-08-20 13:21:00,73.0,60.0,29.95,SW,223,2.0,5.0,63,0.00,,,0.00,,2013-08-20 20:21:00,
2013-08-20 13:42:00,74.0,60.0,29.95,WSW,257,2.0,4.0,61,0.00,,,0.00,,2013-08-20 20:42:00,
2013-08-20 13:52:00,75.0,60.0,29.94,WSW,242,2.0,5.0,60,0.00,,,0.00,,2013-08-20 20:52:00,
2013-08-20 14:11:00,77.0,61.0,29.94,NW,316,2.0,4.0,57,0.00,,,0.00,,2013-08-20 21:11:00,
2013-08-20 14:22:00,77.0,60.0,29.93,WNW,291,2.0,6.0,56,0.00,,,0.00,,2013-08-20 21:22:00,
2013-08-20 14:44:00,78.0,60.0,29.93,WNW,292,3.0,7.0,54,0.00,,,0.00,,2013-08-20 21:44:00,
2013-08-20 14:55:00,78.0,60.0,29.93,West,265,2.0,7.0,54,0.00,,,0.00,,2013-08-20 21:55:00,
2013-08-20 15:14:00,79.0,60.0,29.92,SW,223,2.0,5.0,53,0.00,,,0.00,,2013-08-20 22:14:00,
2013-08-20 15:24:00,79.0,60.0,29.92,West,275,2.0,6.0,52,0.00,,,0.00,,2013-08-20 22:24:00,
2013-08-20 15:42:00,80.0,60.0,29.91,WNW,290,3.0,6.0,50,0.00,,,0.00,,2013-08-20 22:42:00,
2013-08-20 15:53:00,80.0,60.0,29.91,WSW,250,5.0,7.0,50,0.00,,,0.00,,2013-08-20 22:53:00,
2013-08-20 16:12:00,79.0,59.0,29.91,NW,309,2.0,6.0,51,0.00,,,0.00,,2013-08-20 23:12:00,
2013-08-20 16:22:00,79.0,59.0,29.91,WNW,290,2.0,6.0,51,0.00,,,0.00,,2013-08-20 23:22:00,
2013-08-20 16:42:00,80.0,60.0,29.90,SW,231,1.0,5.0,51,0.00,,,0.00,,2013-08-20 23:42:00,
2013-08-20 16:52:00,81.0,59.0,29.90,West,277,2.0,8.0,47,0.00,,,0.00,,2013-08-20 23:52:00,
2013-08-20 17:12:00,80.0,58.0,29.89,SW,233,1.0,4.0,47,0.00,,,0.00,,2013-08-21 00:12:00,
2013-08-20 17:22:00,79.0,56.0,29.89,WSW,246,2.0,6.0,46,0.00,,,0.00,,2013-08-21 00:22:00,
2013-08-20 17:42:00,78.0,57.0,29.89,WNW,286,2.0,9.0,48,0.00,,,0.00,,2013-08-21 00:42:00,
2013-08-20 17:52:00,76.0,57.0,29.89,WNW,293,3.0,6.0,52,0.00,,,0.00,,2013-08-21 00:52:00,
2013-08-20 18:11:00,74.0,58.0,29.89,West,268,3.0,9.0,57,0.00,,,0.00,,2013-08-21 01:11:00,
2013-08-20 18:21:00,72.0,57.0,29.89,WNW,296,2.0,5.0,60,0.00,,,0.00,,2013-08-21 01:21:00,
2013-08-20 18:52:00,68.0,57.0,29.90,WNW,293,2.0,5.0,68,0.00,,,0.00,,2013-08-21 01:52:00,
2013-08-20 19:12:00,66.0,56.0,29.90,WSW,252,2.0,5.0,71,0.00,,,0.00,,2013-08-21 02:12:00,
2013-08-20 19:22:00,64.0,56.0,29.91,WNW,288,3.0,4.0,75,0.00,,,0.00,,2013-08-21 02:22:00,
2013-08-20 19:42:00,63.0,56.0,29.91,WNW,290,2.0,3.0,77,0.00,,,0.00,,2013-08-21 02:42:00,
2013-08-20 19:52:00,63.0,56.0,29.91,WNW,299,2.0,4.0,79,0.00,,,0.00,,2013-08-21 02:52:00,
2013-08-20 20:12:00,62.0,56.0,29.92,WNW,296,1.0,2.0,80,0.00,,,0.00,,2013-08-21 03:12:00,
2013-08-20 20:22:00,62.0,56.0,29.93,WNW,285,1.0,3.0,82,0.00,,,0.00,,2013-08-21 03:22:00,
2013-08-20 20:44:00,61.0,56.0,29.93,WNW,288,1.0,3.0,84,0.00,,,0.00,,2013-08-21 03:44:00,
2013-08-20 20:55:00,60.0,56.0,29.93,WNW,284,2.0,3.0,86,0.00,,,0.00,,2013-08-21 03:55:00,
2013-08-20 21:13:00,59.0,56.0,29.94,West,280,1.0,3.0,89,0.00,,,0.00,,2013-08-21 04:13:00,
2013-08-20 21:23:00,58.0,55.0,29.94,West,279,1.0,2.0,90,0.00,,,0.00,,2013-08-21 04:23:00,
2013-08-20 21:44:00,58.0,55.0,29.94,West,271,1.0,2.0,91,0.00,,,0.00,,2013-08-21 04:44:00,
2013-08-20 21:54:00,58.0,56.0,29.94,West,279,1.0,3.0,92,0.00,,,0.00,,2013-08-21 04:54:00,
2013-08-20 22:12:00,58.0,56.0,29.94,West,279,1.0,2.0,93,0.00,,,0.00,,2013-08-21 05:12:00,
2013-08-20 22:22:00,58.0,56.0,29.94,SW,235,1.0,3.0,93,0.00,,,0.00,,2013-08-21 05:22:00,
2013-08-20 22:43:00,57.0,55.0,29.95,West,265,1.0,3.0,93,0.00,,,0.00,,2013-08-21 05:43:00,
2013-08-20 22:52:00,57.0,55.0,29.94,West,270,1.0,2.0,94,0.00,,,0.00,,2013-08-21 05:52:00,
2013-08-20 23:12:00,57.0,55.0,29.94,West,263,1.0,2.0,94,0.00,,,0.00,,2013-08-21 06:12:00,
2013-08-20 23:22:00,57.0,55.0,29.94,WSW,250,1.0,2.0,94,0.00,,,0.00,,2013-08-21 06:22:00,
2013-08-20 23:42:00,57.0,55.0,29.94,WSW,250,1.0,2.0,94,0.00,,,0.00,,2013-08-21 06:42:00,
2013-08-20 23:52:00,57.0,55.0,29.94,WSW,250,1.0,2.0,94,0.00,,,0.00,,2013-08-21 06:52:00,